sensor_id;sensor_type;location;lat;lon;timestamp;temperature;humidity
69543;SHT31;56762;49.494;11.768;2023-07-28T00:00:53;16.44;92.63
69543;SHT31;56762;49.494;11.768;2023-07-28T00:03:22;16.46;92.64
69543;SHT31;56762;49.494;11.768;2023-07-28T00:05:49;16.46;92.41
69543;SHT31;56762;49.494;11.768;2023-07-28T00:08:17;16.47;92.36
69543;SHT31;56762;49.494;11.768;2023-07-28T00:10:45;16.46;92.28
69543;SHT31;56762;49.494;11.768;2023-07-28T00:13:14;16.47;92.24
69543;SHT31;56762;49.494;11.768;2023-07-28T00:15:42;16.48;92.29
69543;SHT31;56762;49.494;11.768;2023-07-28T00:18:10;16.48;92.23
69543;SHT31;56762;49.494;11.768;2023-07-28T00:20:38;16.46;92.31
69543;SHT31;56762;49.494;11.768;2023-07-28T00:23:07;16.48;92.18
69543;SHT31;56762;49.494;11.768;2023-07-28T00:25:35;16.47;92.24
69543;SHT31;56762;49.494;11.768;2023-07-28T00:28:03;16.48;92.28
69543;SHT31;56762;49.494;11.768;2023-07-28T00:30:32;16.48;92.23
69543;SHT31;56762;49.494;11.768;2023-07-28T00:33:01;16.47;92.29
69543;SHT31;56762;49.494;11.768;2023-07-28T00:35:28;16.48;92.37
69543;SHT31;56762;49.494;11.768;2023-07-28T00:37:56;16.48;92.27
69543;SHT31;56762;49.494;11.768;2023-07-28T00:40:24;16.46;92.23
69543;SHT31;56762;49.494;11.768;2023-07-28T00:42:52;16.47;92.34
69543;SHT31;56762;49.494;11.768;2023-07-28T00:45:20;16.46;92.14
69543;SHT31;56762;49.494;11.768;2023-07-28T00:47:49;16.46;92.23
69543;SHT31;56762;49.494;11.768;2023-07-28T00:50:17;16.47;92.43
69543;SHT31;56762;49.494;11.768;2023-07-28T00:52:45;16.44;92.34
69543;SHT31;56762;49.494;11.768;2023-07-28T00:55:13;16.44;92.34
69543;SHT31;56762;49.494;11.768;2023-07-28T00:57:41;16.44;92.26
69543;SHT31;56762;49.494;11.768;2023-07-28T01:00:10;16.46;92.16
69543;SHT31;56762;49.494;11.768;2023-07-28T01:02:38;16.46;92.21
69543;SHT31;56762;49.494;11.768;2023-07-28T01:05:08;16.44;92.27
69543;SHT31;56762;49.494;11.768;2023-07-28T01:07:38;16.46;92.17
69543;SHT31;56762;49.494;11.768;2023-07-28T01:10:11;16.44;92.34
69543;SHT31;56762;49.494;11.768;2023-07-28T01:12:39;16.46;92.55
69543;SHT31;56762;49.494;11.768;2023-07-28T01:15:07;16.46;92.56
69543;SHT31;56762;49.494;11.768;2023-07-28T01:17:35;16.46;92.54
69543;SHT31;56762;49.494;11.768;2023-07-28T01:20:04;16.46;92.77
69543;SHT31;56762;49.494;11.768;2023-07-28T01:22:49;16.44;92.75
69543;SHT31;56762;49.494;11.768;2023-07-28T01:25:29;16.44;92.76
69543;SHT31;56762;49.494;11.768;2023-07-28T01:28:01;16.46;92.77
69543;SHT31;56762;49.494;11.768;2023-07-28T01:30:29;16.46;92.90
69543;SHT31;56762;49.494;11.768;2023-07-28T01:32:57;16.44;92.90
69543;SHT31;56762;49.494;11.768;2023-07-28T01:35:25;16.44;92.88
69543;SHT31;56762;49.494;11.768;2023-07-28T01:37:54;16.44;92.78
69543;SHT31;56762;49.494;11.768;2023-07-28T01:44:04;16.46;92.69
69543;SHT31;56762;49.494;11.768;2023-07-28T01:46:32;16.47;92.73
69543;SHT31;56762;49.494;11.768;2023-07-28T01:49:00;16.48;92.81
69543;SHT31;56762;49.494;11.768;2023-07-28T01:51:28;16.48;92.82
69543;SHT31;56762;49.494;11.768;2023-07-28T01:53:56;16.53;92.88
69543;SHT31;56762;49.494;11.768;2023-07-28T01:56:24;16.51;92.94
69543;SHT31;56762;49.494;11.768;2023-07-28T01:58:52;16.51;92.92
69543;SHT31;56762;49.494;11.768;2023-07-28T02:01:21;16.53;92.81
69543;SHT31;56762;49.494;11.768;2023-07-28T02:03:48;16.54;92.88
69543;SHT31;56762;49.494;11.768;2023-07-28T02:06:16;16.54;92.92
69543;SHT31;56762;49.494;11.768;2023-07-28T02:08:44;16.54;92.87
69543;SHT31;56762;49.494;11.768;2023-07-28T02:11:12;16.56;92.87
69543;SHT31;56762;49.494;11.768;2023-07-28T02:13:40;16.54;92.94
69543;SHT31;56762;49.494;11.768;2023-07-28T02:16:08;16.58;92.89
69543;SHT31;56762;49.494;11.768;2023-07-28T02:18:37;16.57;92.82
69543;SHT31;56762;49.494;11.768;2023-07-28T02:21:08;16.56;93.08
69543;SHT31;56762;49.494;11.768;2023-07-28T02:23:35;16.57;93.07
69543;SHT31;56762;49.494;11.768;2023-07-28T02:26:03;16.56;93.11
69543;SHT31;56762;49.494;11.768;2023-07-28T02:28:31;16.56;93.12
69543;SHT31;56762;49.494;11.768;2023-07-28T02:30:59;16.57;93.13
69543;SHT31;56762;49.494;11.768;2023-07-28T02:33:27;16.58;93.13
69543;SHT31;56762;49.494;11.768;2023-07-28T02:35:59;16.57;93.10
69543;SHT31;56762;49.494;11.768;2023-07-28T02:38:27;16.56;93.03
69543;SHT31;56762;49.494;11.768;2023-07-28T02:40:55;16.57;93.04
69543;SHT31;56762;49.494;11.768;2023-07-28T02:43:23;16.56;93.20
69543;SHT31;56762;49.494;11.768;2023-07-28T02:45:53;16.56;93.19
69543;SHT31;56762;49.494;11.768;2023-07-28T02:48:22;16.57;93.13
69543;SHT31;56762;49.494;11.768;2023-07-28T02:50:51;16.60;93.17
69543;SHT31;56762;49.494;11.768;2023-07-28T02:53:20;16.57;93.35
69543;SHT31;56762;49.494;11.768;2023-07-28T02:55:48;16.57;93.26
69543;SHT31;56762;49.494;11.768;2023-07-28T02:58:16;16.58;93.29
69543;SHT31;56762;49.494;11.768;2023-07-28T03:00:44;16.56;93.42
69543;SHT31;56762;49.494;11.768;2023-07-28T03:03:13;16.57;93.40
69543;SHT31;56762;49.494;11.768;2023-07-28T03:05:41;16.56;93.52
69543;SHT31;56762;49.494;11.768;2023-07-28T03:08:08;16.54;93.60
69543;SHT31;56762;49.494;11.768;2023-07-28T03:10:37;16.54;93.75
69543;SHT31;56762;49.494;11.768;2023-07-28T03:13:06;16.54;93.85
69543;SHT31;56762;49.494;11.768;2023-07-28T03:15:33;16.56;93.79
69543;SHT31;56762;49.494;11.768;2023-07-28T03:18:01;16.56;93.74
69543;SHT31;56762;49.494;11.768;2023-07-28T03:20:29;16.56;93.79
69543;SHT31;56762;49.494;11.768;2023-07-28T03:22:57;16.54;93.84
69543;SHT31;56762;49.494;11.768;2023-07-28T03:25:25;16.51;93.97
69543;SHT31;56762;49.494;11.768;2023-07-28T03:27:54;16.50;93.92
69543;SHT31;56762;49.494;11.768;2023-07-28T03:30:22;16.53;93.88
69543;SHT31;56762;49.494;11.768;2023-07-28T03:32:50;16.53;93.99
69543;SHT31;56762;49.494;11.768;2023-07-28T03:35:18;16.53;93.95
69543;SHT31;56762;49.494;11.768;2023-07-28T03:37:46;16.53;93.98
69543;SHT31;56762;49.494;11.768;2023-07-28T03:40:13;16.53;93.98
69543;SHT31;56762;49.494;11.768;2023-07-28T03:42:42;16.54;94.05
69543;SHT31;56762;49.494;11.768;2023-07-28T03:45:11;16.53;94.00
69543;SHT31;56762;49.494;11.768;2023-07-28T03:47:39;16.56;93.99
69543;SHT31;56762;49.494;11.768;2023-07-28T03:50:07;16.54;94.07
69543;SHT31;56762;49.494;11.768;2023-07-28T03:52:35;16.54;94.09
69543;SHT31;56762;49.494;11.768;2023-07-28T03:55:04;16.54;94.16
69543;SHT31;56762;49.494;11.768;2023-07-28T03:57:31;16.50;94.18
69543;SHT31;56762;49.494;11.768;2023-07-28T03:59:59;16.51;94.16
69543;SHT31;56762;49.494;11.768;2023-07-28T04:02:28;16.51;94.30
69543;SHT31;56762;49.494;11.768;2023-07-28T04:04:57;16.54;94.34
69543;SHT31;56762;49.494;11.768;2023-07-28T04:07:25;16.51;94.48
69543;SHT31;56762;49.494;11.768;2023-07-28T04:09:53;16.53;94.50
69543;SHT31;56762;49.494;11.768;2023-07-28T04:12:20;16.54;94.35
69543;SHT31;56762;49.494;11.768;2023-07-28T04:14:48;16.56;94.42
69543;SHT31;56762;49.494;11.768;2023-07-28T04:17:16;16.57;94.40
69543;SHT31;56762;49.494;11.768;2023-07-28T04:19:45;16.56;94.37
69543;SHT31;56762;49.494;11.768;2023-07-28T04:22:14;16.57;94.27
69543;SHT31;56762;49.494;11.768;2023-07-28T04:24:42;16.57;94.30
69543;SHT31;56762;49.494;11.768;2023-07-28T04:27:10;16.58;94.32
69543;SHT31;56762;49.494;11.768;2023-07-28T04:29:38;16.58;94.34
69543;SHT31;56762;49.494;11.768;2023-07-28T04:32:06;16.60;94.21
69543;SHT31;56762;49.494;11.768;2023-07-28T04:34:34;16.60;94.18
69543;SHT31;56762;49.494;11.768;2023-07-28T04:37:04;16.61;94.17
69543;SHT31;56762;49.494;11.768;2023-07-28T04:39:32;16.61;94.28
69543;SHT31;56762;49.494;11.768;2023-07-28T04:42:00;16.63;94.28
69543;SHT31;56762;49.494;11.768;2023-07-28T04:44:28;16.63;94.31
69543;SHT31;56762;49.494;11.768;2023-07-28T04:46:56;16.64;94.27
69543;SHT31;56762;49.494;11.768;2023-07-28T04:49:23;16.65;94.20
69543;SHT31;56762;49.494;11.768;2023-07-28T04:51:51;16.65;94.22
69543;SHT31;56762;49.494;11.768;2023-07-28T04:54:20;16.67;94.18
69543;SHT31;56762;49.494;11.768;2023-07-28T04:56:51;16.67;94.19
69543;SHT31;56762;49.494;11.768;2023-07-28T04:59:20;16.70;94.29
69543;SHT31;56762;49.494;11.768;2023-07-28T05:01:48;16.70;94.34
69543;SHT31;56762;49.494;11.768;2023-07-28T05:04:15;16.75;94.31
69543;SHT31;56762;49.494;11.768;2023-07-28T05:06:46;16.74;94.03
69543;SHT31;56762;49.494;11.768;2023-07-28T05:09:14;16.74;94.07
69543;SHT31;56762;49.494;11.768;2023-07-28T05:11:43;16.79;94.13
69543;SHT31;56762;49.494;11.768;2023-07-28T05:14:14;16.81;94.17
69543;SHT31;56762;49.494;11.768;2023-07-28T05:16:41;16.82;94.23
69543;SHT31;56762;49.494;11.768;2023-07-28T05:19:09;16.82;94.36
69543;SHT31;56762;49.494;11.768;2023-07-28T05:21:37;16.82;94.25
69543;SHT31;56762;49.494;11.768;2023-07-28T05:24:05;16.84;94.34
69543;SHT31;56762;49.494;11.768;2023-07-28T05:26:33;16.84;94.48
69543;SHT31;56762;49.494;11.768;2023-07-28T05:29:02;16.85;94.68
69543;SHT31;56762;49.494;11.768;2023-07-28T05:31:30;16.87;94.63
69543;SHT31;56762;49.494;11.768;2023-07-28T05:33:58;16.88;94.33
69543;SHT31;56762;49.494;11.768;2023-07-28T05:36:26;16.87;94.23
69543;SHT31;56762;49.494;11.768;2023-07-28T05:38:55;16.91;94.27
69543;SHT31;56762;49.494;11.768;2023-07-28T05:41:23;16.91;94.43
69543;SHT31;56762;49.494;11.768;2023-07-28T05:43:51;16.89;94.50
69543;SHT31;56762;49.494;11.768;2023-07-28T05:46:20;16.91;94.49
69543;SHT31;56762;49.494;11.768;2023-07-28T05:48:48;16.94;94.62
69543;SHT31;56762;49.494;11.768;2023-07-28T05:51:16;16.94;94.69
69543;SHT31;56762;49.494;11.768;2023-07-28T05:53:44;16.92;94.59
69543;SHT31;56762;49.494;11.768;2023-07-28T05:56:12;16.95;94.63
69543;SHT31;56762;49.494;11.768;2023-07-28T05:58:40;16.98;94.84
69543;SHT31;56762;49.494;11.768;2023-07-28T06:01:08;16.99;94.77
69543;SHT31;56762;49.494;11.768;2023-07-28T06:03:37;16.98;94.51
69543;SHT31;56762;49.494;11.768;2023-07-28T06:06:07;16.99;94.44
69543;SHT31;56762;49.494;11.768;2023-07-28T06:08:35;17.02;94.45
69543;SHT31;56762;49.494;11.768;2023-07-28T06:11:03;17.04;94.67
69543;SHT31;56762;49.494;11.768;2023-07-28T06:13:32;17.05;94.60
69543;SHT31;56762;49.494;11.768;2023-07-28T06:15:59;17.07;94.54
69543;SHT31;56762;49.494;11.768;2023-07-28T06:18:27;17.08;94.43
69543;SHT31;56762;49.494;11.768;2023-07-28T06:20:57;17.07;94.33
69543;SHT31;56762;49.494;11.768;2023-07-28T06:23:24;17.09;93.92
69543;SHT31;56762;49.494;11.768;2023-07-28T06:25:52;17.09;94.11
69543;SHT31;56762;49.494;11.768;2023-07-28T06:28:21;17.12;93.90
69543;SHT31;56762;49.494;11.768;2023-07-28T06:30:53;17.12;93.86
69543;SHT31;56762;49.494;11.768;2023-07-28T06:33:21;17.11;93.67
69543;SHT31;56762;49.494;11.768;2023-07-28T06:35:49;17.16;93.86
69543;SHT31;56762;49.494;11.768;2023-07-28T06:38:19;17.19;93.85
69543;SHT31;56762;49.494;11.768;2023-07-28T06:40:47;17.22;93.64
69543;SHT31;56762;49.494;11.768;2023-07-28T06:43:15;17.28;93.57
69543;SHT31;56762;49.494;11.768;2023-07-28T06:45:44;17.29;93.81
69543;SHT31;56762;49.494;11.768;2023-07-28T06:48:12;17.33;93.40
69543;SHT31;56762;49.494;11.768;2023-07-28T06:50:40;17.38;92.91
69543;SHT31;56762;49.494;11.768;2023-07-28T06:53:08;17.40;93.24
69543;SHT31;56762;49.494;11.768;2023-07-28T06:55:37;17.46;93.24
69543;SHT31;56762;49.494;11.768;2023-07-28T06:58:06;17.50;93.37
69543;SHT31;56762;49.494;11.768;2023-07-28T07:00:34;17.53;93.28
69543;SHT31;56762;49.494;11.768;2023-07-28T07:03:02;17.50;93.00
69543;SHT31;56762;49.494;11.768;2023-07-28T07:05:29;17.51;92.97
69543;SHT31;56762;49.494;11.768;2023-07-28T07:07:59;17.49;92.87
69543;SHT31;56762;49.494;11.768;2023-07-28T07:10:28;17.54;92.70
69543;SHT31;56762;49.494;11.768;2023-07-28T07:12:58;17.54;92.54
69543;SHT31;56762;49.494;11.768;2023-07-28T07:15:26;17.53;92.35
69543;SHT31;56762;49.494;11.768;2023-07-28T07:17:54;17.59;92.52
69543;SHT31;56762;49.494;11.768;2023-07-28T07:20:22;17.62;92.58
69543;SHT31;56762;49.494;11.768;2023-07-28T07:22:50;17.65;92.87
69543;SHT31;56762;49.494;11.768;2023-07-28T07:25:19;17.71;92.60
69543;SHT31;56762;49.494;11.768;2023-07-28T07:27:48;17.70;92.44
69543;SHT31;56762;49.494;11.768;2023-07-28T07:30:17;17.74;92.51
69543;SHT31;56762;49.494;11.768;2023-07-28T07:32:45;17.74;92.17
69543;SHT31;56762;49.494;11.768;2023-07-28T07:35:13;17.71;91.87
69543;SHT31;56762;49.494;11.768;2023-07-28T07:37:41;17.66;91.82
69543;SHT31;56762;49.494;11.768;2023-07-28T07:40:12;17.69;91.91
69543;SHT31;56762;49.494;11.768;2023-07-28T07:42:42;17.67;92.01
69543;SHT31;56762;49.494;11.768;2023-07-28T07:45:11;17.70;92.13
69543;SHT31;56762;49.494;11.768;2023-07-28T07:47:40;17.70;92.30
69543;SHT31;56762;49.494;11.768;2023-07-28T07:50:10;17.70;92.31
69543;SHT31;56762;49.494;11.768;2023-07-28T07:52:40;17.76;92.63
69543;SHT31;56762;49.494;11.768;2023-07-28T07:55:09;17.77;92.60
69543;SHT31;56762;49.494;11.768;2023-07-28T07:57:38;17.79;92.75
69543;SHT31;56762;49.494;11.768;2023-07-28T08:00:07;17.76;92.08
69543;SHT31;56762;49.494;11.768;2023-07-28T08:02:35;17.76;92.00
69543;SHT31;56762;49.494;11.768;2023-07-28T08:05:05;17.74;91.32
69543;SHT31;56762;49.494;11.768;2023-07-28T08:07:34;17.73;91.46
69543;SHT31;56762;49.494;11.768;2023-07-28T08:10:02;17.76;91.37
69543;SHT31;56762;49.494;11.768;2023-07-28T08:12:31;17.77;91.69
69543;SHT31;56762;49.494;11.768;2023-07-28T08:14:58;17.80;91.81
69543;SHT31;56762;49.494;11.768;2023-07-28T08:17:26;17.81;91.91
69543;SHT31;56762;49.494;11.768;2023-07-28T08:19:54;17.77;92.26
69543;SHT31;56762;49.494;11.768;2023-07-28T08:22:23;17.79;91.66
69543;SHT31;56762;49.494;11.768;2023-07-28T08:24:52;17.79;92.05
69543;SHT31;56762;49.494;11.768;2023-07-28T08:27:19;17.77;91.93
69543;SHT31;56762;49.494;11.768;2023-07-28T08:29:47;17.76;91.77
69543;SHT31;56762;49.494;11.768;2023-07-28T08:32:15;17.76;91.74
69543;SHT31;56762;49.494;11.768;2023-07-28T08:34:43;17.79;91.98
69543;SHT31;56762;49.494;11.768;2023-07-28T08:37:11;17.83;91.96
69543;SHT31;56762;49.494;11.768;2023-07-28T08:39:41;17.90;91.90
69543;SHT31;56762;49.494;11.768;2023-07-28T08:42:08;17.91;91.79
69543;SHT31;56762;49.494;11.768;2023-07-28T08:44:36;17.98;90.76
69543;SHT31;56762;49.494;11.768;2023-07-28T08:47:05;18.05;91.45
69543;SHT31;56762;49.494;11.768;2023-07-28T08:49:33;18.10;91.29
69543;SHT31;56762;49.494;11.768;2023-07-28T08:52:03;18.15;91.36
69543;SHT31;56762;49.494;11.768;2023-07-28T08:54:31;18.18;91.33
69543;SHT31;56762;49.494;11.768;2023-07-28T08:57:01;18.24;91.53
69543;SHT31;56762;49.494;11.768;2023-07-28T08:59:29;18.32;91.49
69543;SHT31;56762;49.494;11.768;2023-07-28T09:01:58;18.35;91.41
69543;SHT31;56762;49.494;11.768;2023-07-28T09:04:26;18.41;91.63
69543;SHT31;56762;49.494;11.768;2023-07-28T09:06:54;18.47;91.61
69543;SHT31;56762;49.494;11.768;2023-07-28T09:09:22;18.52;91.43
69543;SHT31;56762;49.494;11.768;2023-07-28T09:11:52;18.52;90.37
69543;SHT31;56762;49.494;11.768;2023-07-28T09:14:22;18.55;90.35
69543;SHT31;56762;49.494;11.768;2023-07-28T09:16:52;18.59;90.40
69543;SHT31;56762;49.494;11.768;2023-07-28T09:19:20;18.62;89.55
69543;SHT31;56762;49.494;11.768;2023-07-28T09:21:57;18.65;89.84
69543;SHT31;56762;49.494;11.768;2023-07-28T09:24:30;18.69;90.11
69543;SHT31;56762;49.494;11.768;2023-07-28T09:26:59;18.73;89.71
69543;SHT31;56762;49.494;11.768;2023-07-28T09:29:28;18.76;88.99
69543;SHT31;56762;49.494;11.768;2023-07-28T09:32:03;18.80;89.18
69543;SHT31;56762;49.494;11.768;2023-07-28T09:34:31;18.90;89.13
69543;SHT31;56762;49.494;11.768;2023-07-28T09:37:00;18.93;88.61
69543;SHT31;56762;49.494;11.768;2023-07-28T09:39:28;19.02;89.03
69543;SHT31;56762;49.494;11.768;2023-07-28T09:41:59;19.07;88.38
69543;SHT31;56762;49.494;11.768;2023-07-28T09:44:28;19.16;88.09
69543;SHT31;56762;49.494;11.768;2023-07-28T09:46:57;19.23;88.66
69543;SHT31;56762;49.494;11.768;2023-07-28T09:49:28;19.28;87.87
69543;SHT31;56762;49.494;11.768;2023-07-28T09:52:01;19.34;88.02
69543;SHT31;56762;49.494;11.768;2023-07-28T09:54:36;19.38;87.82
69543;SHT31;56762;49.494;11.768;2023-07-28T09:57:11;19.41;87.76
69543;SHT31;56762;49.494;11.768;2023-07-28T09:59:42;19.43;87.56
69543;SHT31;56762;49.494;11.768;2023-07-28T10:02:09;19.43;87.17
69543;SHT31;56762;49.494;11.768;2023-07-28T10:04:38;19.40;86.23
69543;SHT31;56762;49.494;11.768;2023-07-28T10:07:07;19.43;86.69
69543;SHT31;56762;49.494;11.768;2023-07-28T10:09:35;19.38;86.35
69543;SHT31;56762;49.494;11.768;2023-07-28T10:12:04;19.34;86.66
69543;SHT31;56762;49.494;11.768;2023-07-28T10:14:35;19.37;86.80
69543;SHT31;56762;49.494;11.768;2023-07-28T10:17:06;19.34;86.67
69543;SHT31;56762;49.494;11.768;2023-07-28T10:19:34;19.34;87.12
69543;SHT31;56762;49.494;11.768;2023-07-28T10:22:08;19.32;87.26
69543;SHT31;56762;49.494;11.768;2023-07-28T10:24:52;19.38;87.82
69543;SHT31;56762;49.494;11.768;2023-07-28T10:27:30;19.41;87.86
69543;SHT31;56762;49.494;11.768;2023-07-28T10:29:59;19.43;87.55
69543;SHT31;56762;49.494;11.768;2023-07-28T10:32:36;19.43;88.00
69543;SHT31;56762;49.494;11.768;2023-07-28T10:35:06;19.37;88.48
69543;SHT31;56762;49.494;11.768;2023-07-28T10:37:35;19.32;89.12
69543;SHT31;56762;49.494;11.768;2023-07-28T10:40:22;19.28;89.04
69543;SHT31;56762;49.494;11.768;2023-07-28T10:42:51;19.23;89.21
69543;SHT31;56762;49.494;11.768;2023-07-28T10:45:20;19.20;89.64
69543;SHT31;56762;49.494;11.768;2023-07-28T10:47:51;19.19;89.94
69543;SHT31;56762;49.494;11.768;2023-07-28T10:50:19;19.16;90.04
69543;SHT31;56762;49.494;11.768;2023-07-28T10:52:47;19.09;89.55
69543;SHT31;56762;49.494;11.768;2023-07-28T10:55:16;19.09;89.67
69543;SHT31;56762;49.494;11.768;2023-07-28T10:57:45;19.09;89.97
69543;SHT31;56762;49.494;11.768;2023-07-28T11:00:15;19.09;90.26
69543;SHT31;56762;49.494;11.768;2023-07-28T11:02:45;19.16;90.73
69543;SHT31;56762;49.494;11.768;2023-07-28T11:05:19;19.16;90.13
69543;SHT31;56762;49.494;11.768;2023-07-28T11:07:49;19.20;90.13
69543;SHT31;56762;49.494;11.768;2023-07-28T11:10:18;19.26;90.52
69543;SHT31;56762;49.494;11.768;2023-07-28T11:12:48;19.31;90.55
69543;SHT31;56762;49.494;11.768;2023-07-28T11:15:18;19.34;89.79
69543;SHT31;56762;49.494;11.768;2023-07-28T11:17:47;19.38;89.00
69543;SHT31;56762;49.494;11.768;2023-07-28T11:20:18;19.44;88.42
69543;SHT31;56762;49.494;11.768;2023-07-28T11:22:52;19.43;88.43
69543;SHT31;56762;49.494;11.768;2023-07-28T11:25:20;19.47;88.47
69543;SHT31;56762;49.494;11.768;2023-07-28T11:27:49;19.48;86.42
69543;SHT31;56762;49.494;11.768;2023-07-28T11:30:18;19.50;86.14
69543;SHT31;56762;49.494;11.768;2023-07-28T11:32:48;19.54;86.20
69543;SHT31;56762;49.494;11.768;2023-07-28T11:35:19;19.53;86.53
69543;SHT31;56762;49.494;11.768;2023-07-28T11:37:49;19.53;86.66
69543;SHT31;56762;49.494;11.768;2023-07-28T11:40:20;19.50;85.37
69543;SHT31;56762;49.494;11.768;2023-07-28T11:42:50;19.48;85.34
69543;SHT31;56762;49.494;11.768;2023-07-28T11:45:19;19.50;86.17
69543;SHT31;56762;49.494;11.768;2023-07-28T11:47:55;19.47;86.05
69543;SHT31;56762;49.494;11.768;2023-07-28T11:50:27;19.54;86.12
69543;SHT31;56762;49.494;11.768;2023-07-28T11:52:57;19.54;85.81
69543;SHT31;56762;49.494;11.768;2023-07-28T11:55:25;19.58;85.40
69543;SHT31;56762;49.494;11.768;2023-07-28T11:57:53;19.62;84.73
69543;SHT31;56762;49.494;11.768;2023-07-28T12:00:28;19.64;84.41
69543;SHT31;56762;49.494;11.768;2023-07-28T12:03:01;19.68;84.12
69543;SHT31;56762;49.494;11.768;2023-07-28T12:05:32;19.79;84.29
69543;SHT31;56762;49.494;11.768;2023-07-28T12:08:02;19.86;83.12
69543;SHT31;56762;49.494;11.768;2023-07-28T12:10:31;19.89;82.98
69543;SHT31;56762;49.494;11.768;2023-07-28T12:13:06;19.86;83.29
69543;SHT31;56762;49.494;11.768;2023-07-28T12:15:40;19.85;83.71
69543;SHT31;56762;49.494;11.768;2023-07-28T12:18:12;19.91;83.41
69543;SHT31;56762;49.494;11.768;2023-07-28T12:20:46;19.89;83.15
69543;SHT31;56762;49.494;11.768;2023-07-28T12:23:16;19.89;83.19
69543;SHT31;56762;49.494;11.768;2023-07-28T12:25:47;19.91;83.11
69543;SHT31;56762;49.494;11.768;2023-07-28T12:28:16;19.93;83.40
69543;SHT31;56762;49.494;11.768;2023-07-28T12:30:46;19.96;83.32
69543;SHT31;56762;49.494;11.768;2023-07-28T12:33:15;20.02;83.49
69543;SHT31;56762;49.494;11.768;2023-07-28T12:35:49;20.04;83.70
69543;SHT31;56762;49.494;11.768;2023-07-28T12:38:19;20.08;84.51
69543;SHT31;56762;49.494;11.768;2023-07-28T12:40:50;20.13;82.72
69543;SHT31;56762;49.494;11.768;2023-07-28T12:43:21;20.16;82.91
69543;SHT31;56762;49.494;11.768;2023-07-28T12:45:52;20.16;82.43
69543;SHT31;56762;49.494;11.768;2023-07-28T12:48:23;20.12;81.49
69543;SHT31;56762;49.494;11.768;2023-07-28T12:50:52;20.10;81.99
69543;SHT31;56762;49.494;11.768;2023-07-28T12:53:23;20.12;82.52
69543;SHT31;56762;49.494;11.768;2023-07-28T12:55:51;20.15;82.84
69543;SHT31;56762;49.494;11.768;2023-07-28T12:58:21;20.18;82.32
69543;SHT31;56762;49.494;11.768;2023-07-28T13:00:52;20.22;81.89
69543;SHT31;56762;49.494;11.768;2023-07-28T13:03:23;20.25;81.67
69543;SHT31;56762;49.494;11.768;2023-07-28T13:05:53;20.28;82.03
69543;SHT31;56762;49.494;11.768;2023-07-28T13:08:21;20.30;81.71
69543;SHT31;56762;49.494;11.768;2023-07-28T13:10:52;20.33;80.58
69543;SHT31;56762;49.494;11.768;2023-07-28T13:13:23;20.32;80.78
69543;SHT31;56762;49.494;11.768;2023-07-28T13:15:50;20.29;81.08
69543;SHT31;56762;49.494;11.768;2023-07-28T13:18:18;20.30;80.83
69543;SHT31;56762;49.494;11.768;2023-07-28T13:20:46;20.28;80.48
69543;SHT31;56762;49.494;11.768;2023-07-28T13:23:15;20.28;79.89
69543;SHT31;56762;49.494;11.768;2023-07-28T13:25:43;20.30;80.07
69543;SHT31;56762;49.494;11.768;2023-07-28T13:28:11;20.36;80.24
69543;SHT31;56762;49.494;11.768;2023-07-28T13:30:39;20.39;80.32
69543;SHT31;56762;49.494;11.768;2023-07-28T13:33:09;20.40;79.67
69543;SHT31;56762;49.494;11.768;2023-07-28T13:35:37;20.46;79.03
69543;SHT31;56762;49.494;11.768;2023-07-28T13:38:05;20.44;78.49
69543;SHT31;56762;49.494;11.768;2023-07-28T13:40:34;20.49;78.84
69543;SHT31;56762;49.494;11.768;2023-07-28T13:43:04;20.51;78.61
69543;SHT31;56762;49.494;11.768;2023-07-28T13:45:32;20.56;78.89
69543;SHT31;56762;49.494;11.768;2023-07-28T13:48:00;20.69;78.00
69543;SHT31;56762;49.494;11.768;2023-07-28T13:50:28;20.67;78.83
69543;SHT31;56762;49.494;11.768;2023-07-28T13:52:59;20.70;77.77
69543;SHT31;56762;49.494;11.768;2023-07-28T13:55:48;20.71;78.27
69543;SHT31;56762;49.494;11.768;2023-07-28T13:58:23;20.74;77.84
69543;SHT31;56762;49.494;11.768;2023-07-28T14:00:51;20.73;78.23
69543;SHT31;56762;49.494;11.768;2023-07-28T14:03:19;20.80;76.66
69543;SHT31;56762;49.494;11.768;2023-07-28T14:05:47;20.76;78.19
69543;SHT31;56762;49.494;11.768;2023-07-28T14:08:15;20.76;76.88
69543;SHT31;56762;49.494;11.768;2023-07-28T14:10:44;20.76;76.99
69543;SHT31;56762;49.494;11.768;2023-07-28T14:13:13;20.74;77.37
69543;SHT31;56762;49.494;11.768;2023-07-28T14:15:42;20.81;77.20
69543;SHT31;56762;49.494;11.768;2023-07-28T14:18:10;20.83;76.14
69543;SHT31;56762;49.494;11.768;2023-07-28T14:20:38;20.85;76.44
69543;SHT31;56762;49.494;11.768;2023-07-28T14:23:21;20.91;75.30
69543;SHT31;56762;49.494;11.768;2023-07-28T14:25:49;20.91;75.46
69543;SHT31;56762;49.494;11.768;2023-07-28T14:28:18;20.90;75.70
69543;SHT31;56762;49.494;11.768;2023-07-28T14:30:46;20.97;75.35
69543;SHT31;56762;49.494;11.768;2023-07-28T14:33:15;20.97;76.01
69543;SHT31;56762;49.494;11.768;2023-07-28T14:35:44;20.98;76.54
69543;SHT31;56762;49.494;11.768;2023-07-28T14:38:12;20.94;76.67
69543;SHT31;56762;49.494;11.768;2023-07-28T14:40:41;20.94;75.75
69543;SHT31;56762;49.494;11.768;2023-07-28T14:43:10;20.91;76.40
69543;SHT31;56762;49.494;11.768;2023-07-28T14:45:40;20.91;76.03
69543;SHT31;56762;49.494;11.768;2023-07-28T14:48:08;20.92;76.24
69543;SHT31;56762;49.494;11.768;2023-07-28T14:50:35;20.94;76.37
69543;SHT31;56762;49.494;11.768;2023-07-28T14:53:30;20.92;77.28
69543;SHT31;56762;49.494;11.768;2023-07-28T14:55:58;20.87;77.28
69543;SHT31;56762;49.494;11.768;2023-07-28T14:58:27;20.91;76.75
69543;SHT31;56762;49.494;11.768;2023-07-28T15:00:56;20.92;76.70
69543;SHT31;56762;49.494;11.768;2023-07-28T15:03:25;20.91;76.74
69543;SHT31;56762;49.494;11.768;2023-07-28T15:05:54;20.90;76.50
69543;SHT31;56762;49.494;11.768;2023-07-28T15:08:22;20.90;76.57
69543;SHT31;56762;49.494;11.768;2023-07-28T15:10:50;20.90;76.40
69543;SHT31;56762;49.494;11.768;2023-07-28T15:13:18;20.90;76.15
69543;SHT31;56762;49.494;11.768;2023-07-28T15:15:46;20.94;75.55
69543;SHT31;56762;49.494;11.768;2023-07-28T15:18:15;20.95;75.23
69543;SHT31;56762;49.494;11.768;2023-07-28T15:20:44;20.94;74.73
69543;SHT31;56762;49.494;11.768;2023-07-28T15:23:11;20.92;74.81
69543;SHT31;56762;49.494;11.768;2023-07-28T15:25:39;20.95;75.25
69543;SHT31;56762;49.494;11.768;2023-07-28T15:28:10;20.94;75.81
69543;SHT31;56762;49.494;11.768;2023-07-28T15:30:38;20.97;75.35